Terminal Aerodrome Forecast
Issued by NWS Jackson, KY

Home | Current Version | Previous Version | Text Only | Print | Product List | Glossary On
Versions: 1 2 3 4 5 6 7 8 9 10 11 12 13 14 15 16 17 18 19 20 21 22 23 24 25
357
FTUS43 KJKL 230702 AAB
TAFJKL
TAF AMD
KJKL 230702Z 2307/2406 VRB05KT P6SM VCTS BKN025CB OVC050
     FM231100 VRB05KT P6SM VCTS SCT030CB BKN050
     FM231800 25007KT P6SM SCT140=

USA.gov is the U.S. government's official web portal to all federal, state and local government web resources and services.